sensor_id;sensor_type;location;lat;lon;timestamp;pressure;altitude;pressure_sealevel;temperature;humidity
60433;BME280;46286;48.098;11.590;2023-02-26T00:00:54;94609.50;;;-2.14;100.00
60433;BME280;46286;48.098;11.590;2023-02-26T00:03:34;94614.03;;;-2.10;100.00
60433;BME280;46286;48.098;11.590;2023-02-26T00:05:59;94616.13;;;-2.00;100.00
60433;BME280;46286;48.098;11.590;2023-02-26T00:08:25;94602.47;;;-2.25;100.00
60433;BME280;46286;48.098;11.590;2023-02-26T00:10:51;94610.59;;;-2.03;100.00
60433;BME280;46286;48.098;11.590;2023-02-26T00:13:20;94610.31;;;-2.14;100.00
60433;BME280;46286;48.098;11.590;2023-02-26T00:15:46;94627.88;;;-2.04;100.00
60433;BME280;46286;48.098;11.590;2023-02-26T00:18:14;94626.75;;;-1.89;100.00
60433;BME280;46286;48.098;11.590;2023-02-26T00:20:40;94618.84;;;-1.95;100.00
60433;BME280;46286;48.098;11.590;2023-02-26T00:23:11;94627.16;;;-1.93;100.00
60433;BME280;46286;48.098;11.590;2023-02-26T00:25:40;94626.56;;;-2.13;100.00
60433;BME280;46286;48.098;11.590;2023-02-26T00:28:07;94630.59;;;-1.99;100.00
60433;BME280;46286;48.098;11.590;2023-02-26T00:30:33;94628.81;;;-1.98;100.00
60433;BME280;46286;48.098;11.590;2023-02-26T00:32:59;94628.31;;;-1.88;100.00
60433;BME280;46286;48.098;11.590;2023-02-26T00:35:25;94633.56;;;-1.95;100.00
60433;BME280;46286;48.098;11.590;2023-02-26T00:40:37;94633.59;;;-2.02;100.00
60433;BME280;46286;48.098;11.590;2023-02-26T00:43:06;94632.44;;;-2.06;100.00
60433;BME280;46286;48.098;11.590;2023-02-26T00:45:32;94628.50;;;-2.09;100.00
60433;BME280;46286;48.098;11.590;2023-02-26T00:50:26;94635.22;;;-2.07;100.00
60433;BME280;46286;48.098;11.590;2023-02-26T00:53:24;94641.97;;;-2.06;100.00
60433;BME280;46286;48.098;11.590;2023-02-26T00:55:46;94644.75;;;-2.08;100.00
60433;BME280;46286;48.098;11.590;2023-02-26T00:58:12;94644.75;;;-2.08;100.00
60433;BME280;46286;48.098;11.590;2023-02-26T01:00:37;94631.72;;;-2.13;100.00
60433;BME280;46286;48.098;11.590;2023-02-26T01:03:03;94641.91;;;-2.00;100.00
60433;BME280;46286;48.098;11.590;2023-02-26T01:05:29;94641.50;;;-1.97;100.00
60433;BME280;46286;48.098;11.590;2023-02-26T01:08:30;94643.34;;;-1.85;100.00
60433;BME280;46286;48.098;11.590;2023-02-26T01:10:58;94641.63;;;-1.92;100.00
60433;BME280;46286;48.098;11.590;2023-02-26T01:13:24;94638.38;;;-1.80;100.00
60433;BME280;46286;48.098;11.590;2023-02-26T01:15:54;94640.91;;;-1.99;100.00
60433;BME280;46286;48.098;11.590;2023-02-26T01:18:27;94632.44;;;-2.06;100.00
60433;BME280;46286;48.098;11.590;2023-02-26T01:21:02;94635.19;;;-2.01;100.00
60433;BME280;46286;48.098;11.590;2023-02-26T01:23:34;94638.63;;;-1.88;100.00
60433;BME280;46286;48.098;11.590;2023-02-26T01:26:13;94640.25;;;-1.94;100.00
60433;BME280;46286;48.098;11.590;2023-02-26T01:28:40;94635.19;;;-2.01;100.00
60433;BME280;46286;48.098;11.590;2023-02-26T01:31:13;94635.63;;;-2.04;100.00
60433;BME280;46286;48.098;11.590;2023-02-26T01:33:55;94646.66;;;-1.97;100.00
60433;BME280;46286;48.098;11.590;2023-02-26T01:36:27;94645.69;;;-2.28;100.00
60433;BME280;46286;48.098;11.590;2023-02-26T01:41:42;94654.03;;;-2.25;100.00
60433;BME280;46286;48.098;11.590;2023-02-26T01:44:10;94666.00;;;-2.38;100.00
60433;BME280;46286;48.098;11.590;2023-02-26T01:47:05;94656.53;;;-2.44;100.00
60433;BME280;46286;48.098;11.590;2023-02-26T01:49:35;94654.53;;;-2.42;100.00
60433;BME280;46286;48.098;11.590;2023-02-26T01:52:04;94649.38;;;-2.42;100.00
60433;BME280;46286;48.098;11.590;2023-02-26T01:54:32;94653.69;;;-2.36;100.00
60433;BME280;46286;48.098;11.590;2023-02-26T01:57:11;94666.31;;;-2.28;100.00
60433;BME280;46286;48.098;11.590;2023-02-26T01:59:44;94657.66;;;-2.40;100.00
60433;BME280;46286;48.098;11.590;2023-02-26T02:02:12;94661.50;;;-2.49;100.00
60433;BME280;46286;48.098;11.590;2023-02-26T02:04:39;94674.41;;;-2.49;100.00
60433;BME280;46286;48.098;11.590;2023-02-26T02:07:06;94662.81;;;-2.40;100.00
60433;BME280;46286;48.098;11.590;2023-02-26T02:09:32;94667.22;;;-2.47;100.00
60433;BME280;46286;48.098;11.590;2023-02-26T02:14:59;94671.66;;;-2.22;100.00
60433;BME280;46286;48.098;11.590;2023-02-26T02:17:43;94671.84;;;-2.24;100.00
60433;BME280;46286;48.098;11.590;2023-02-26T02:28:50;94683.72;;;-2.48;100.00
60433;BME280;46286;48.098;11.590;2023-02-26T02:31:26;94681.03;;;-2.35;100.00
60433;BME280;46286;48.098;11.590;2023-02-26T02:34:05;94678.22;;;-2.27;100.00
60433;BME280;46286;48.098;11.590;2023-02-26T02:36:44;94690.19;;;-2.39;100.00
60433;BME280;46286;48.098;11.590;2023-02-26T02:39:17;94681.59;;;-2.65;100.00
60433;BME280;46286;48.098;11.590;2023-02-26T02:41:48;94687.44;;;-2.44;100.00
60433;BME280;46286;48.098;11.590;2023-02-26T02:44:17;94687.81;;;-2.40;100.00
60433;BME280;46286;48.098;11.590;2023-02-26T02:46:47;94691.84;;;-2.51;100.00
60433;BME280;46286;48.098;11.590;2023-02-26T02:49:20;94693.84;;;-2.53;100.00
60433;BME280;46286;48.098;11.590;2023-02-26T02:51:51;94688.19;;;-2.37;100.00
60433;BME280;46286;48.098;11.590;2023-02-26T02:54:41;94690.69;;;-2.55;100.00
60433;BME280;46286;48.098;11.590;2023-02-26T02:57:18;94702.06;;;-2.70;100.00
60433;BME280;46286;48.098;11.590;2023-02-26T02:59:48;94697.47;;;-2.68;100.00
60433;BME280;46286;48.098;11.590;2023-02-26T03:02:24;94697.72;;;-2.76;100.00
60433;BME280;46286;48.098;11.590;2023-02-26T03:04:51;94700.16;;;-2.94;100.00
60433;BME280;46286;48.098;11.590;2023-02-26T03:07:17;94702.28;;;-2.78;100.00
60433;BME280;46286;48.098;11.590;2023-02-26T03:09:42;94706.69;;;-2.85;100.00
60433;BME280;46286;48.098;11.590;2023-02-26T03:12:08;94719.34;;;-2.84;100.00
60433;BME280;46286;48.098;11.590;2023-02-26T03:14:34;94714.59;;;-2.80;100.00
60433;BME280;46286;48.098;11.590;2023-02-26T03:17:08;94711.00;;;-2.79;100.00
60433;BME280;46286;48.098;11.590;2023-02-26T03:19:58;94714.81;;;-2.88;100.00
60433;BME280;46286;48.098;11.590;2023-02-26T03:25:22;94713.00;;;-2.81;100.00
60433;BME280;46286;48.098;11.590;2023-02-26T03:33:24;94724.91;;;-2.80;100.00
60433;BME280;46286;48.098;11.590;2023-02-26T03:36:09;94734.38;;;-2.74;100.00
60433;BME280;46286;48.098;11.590;2023-02-26T03:38:46;94737.16;;;-2.82;100.00
60433;BME280;46286;48.098;11.590;2023-02-26T03:41:28;94736.00;;;-2.86;100.00
60433;BME280;46286;48.098;11.590;2023-02-26T03:44:02;94745.88;;;-2.83;100.00
60433;BME280;46286;48.098;11.590;2023-02-26T03:46:38;94742.16;;;-2.87;100.00
60433;BME280;46286;48.098;11.590;2023-02-26T03:49:09;94755.47;;;-3.10;100.00
60433;BME280;46286;48.098;11.590;2023-02-26T03:51:37;94749.16;;;-3.15;100.00
60433;BME280;46286;48.098;11.590;2023-02-26T03:54:13;94759.78;;;-2.84;100.00
60433;BME280;46286;48.098;11.590;2023-02-26T03:56:43;94761.44;;;-3.17;100.00
60433;BME280;46286;48.098;11.590;2023-02-26T03:59:10;94756.69;;;-3.26;100.00
60433;BME280;46286;48.098;11.590;2023-02-26T04:01:43;94763.03;;;-3.22;100.00
60433;BME280;46286;48.098;11.590;2023-02-26T04:04:18;94769.00;;;-3.28;100.00
60433;BME280;46286;48.098;11.590;2023-02-26T04:06:46;94765.19;;;-3.13;100.00
60433;BME280;46286;48.098;11.590;2023-02-26T04:09:12;94766.56;;;-3.10;100.00
60433;BME280;46286;48.098;11.590;2023-02-26T04:11:38;94768.34;;;-3.04;100.00
60433;BME280;46286;48.098;11.590;2023-02-26T04:14:04;94766.13;;;-2.93;100.00
60433;BME280;46286;48.098;11.590;2023-02-26T04:16:29;94773.69;;;-2.99;100.00
60433;BME280;46286;48.098;11.590;2023-02-26T04:18:55;94762.66;;;-3.33;100.00
60433;BME280;46286;48.098;11.590;2023-02-26T04:21:21;94769.78;;;-3.35;100.00
60433;BME280;46286;48.098;11.590;2023-02-26T04:23:48;94773.56;;;-3.44;100.00
60433;BME280;46286;48.098;11.590;2023-02-26T04:26:13;94768.19;;;-3.22;100.00
60433;BME280;46286;48.098;11.590;2023-02-26T04:28:40;94773.34;;;-3.36;100.00
60433;BME280;46286;48.098;11.590;2023-02-26T04:31:05;94779.69;;;-3.38;100.00
60433;BME280;46286;48.098;11.590;2023-02-26T04:33:32;94781.25;;;-3.31;100.00
60433;BME280;46286;48.098;11.590;2023-02-26T04:35:58;94788.78;;;-3.42;100.00
60433;BME280;46286;48.098;11.590;2023-02-26T04:38:24;94789.97;;;-3.45;100.00
60433;BME280;46286;48.098;11.590;2023-02-26T04:40:50;94790.75;;;-3.38;100.00
60433;BME280;46286;48.098;11.590;2023-02-26T04:43:16;94789.59;;;-3.55;100.00
60433;BME280;46286;48.098;11.590;2023-02-26T04:45:47;94789.59;;;-3.69;100.00
60433;BME280;46286;48.098;11.590;2023-02-26T04:48:14;94788.59;;;-3.81;100.00
60433;BME280;46286;48.098;11.590;2023-02-26T04:50:39;94793.56;;;-3.66;100.00
60433;BME280;46286;48.098;11.590;2023-02-26T04:53:05;94796.72;;;-3.57;100.00
60433;BME280;46286;48.098;11.590;2023-02-26T04:55:31;94800.69;;;-3.61;100.00
60433;BME280;46286;48.098;11.590;2023-02-26T04:57:56;94797.91;;;-3.73;100.00
60433;BME280;46286;48.098;11.590;2023-02-26T05:00:22;94802.63;;;-3.77;100.00
60433;BME280;46286;48.098;11.590;2023-02-26T05:02:47;94804.63;;;-3.79;100.00
60433;BME280;46286;48.098;11.590;2023-02-26T05:05:13;94806.63;;;-3.68;100.00
60433;BME280;46286;48.098;11.590;2023-02-26T05:07:38;94807.00;;;-3.57;100.00
60433;BME280;46286;48.098;11.590;2023-02-26T05:10:05;94801.84;;;-3.84;100.00
60433;BME280;46286;48.098;11.590;2023-02-26T05:12:31;94808.16;;;-3.87;100.00
60433;BME280;46286;48.098;11.590;2023-02-26T05:14:57;94807.75;;;-3.97;100.00
60433;BME280;46286;48.098;11.590;2023-02-26T05:17:23;94810.13;;;-3.95;100.00
60433;BME280;46286;48.098;11.590;2023-02-26T05:19:49;94808.13;;;-4.13;100.00
60433;BME280;46286;48.098;11.590;2023-02-26T05:22:14;94809.31;;;-4.16;100.00
60433;BME280;46286;48.098;11.590;2023-02-26T05:24:40;94820.56;;;-4.17;100.00
60433;BME280;46286;48.098;11.590;2023-02-26T05:27:06;94819.63;;;-4.09;100.00
60433;BME280;46286;48.098;11.590;2023-02-26T05:29:31;94829.50;;;-4.00;100.00
60433;BME280;46286;48.098;11.590;2023-02-26T05:31:57;94824.00;;;-3.96;100.00
60433;BME280;46286;48.098;11.590;2023-02-26T05:34:22;94832.44;;;-4.16;100.00
60433;BME280;46286;48.098;11.590;2023-02-26T05:36:48;94831.78;;;-4.31;100.00
60433;BME280;46286;48.098;11.590;2023-02-26T05:39:13;94829.44;;;-4.26;100.00
60433;BME280;46286;48.098;11.590;2023-02-26T05:41:39;94837.31;;;-4.35;100.00
60433;BME280;46286;48.098;11.590;2023-02-26T05:44:04;94828.59;;;-4.40;100.00
60433;BME280;46286;48.098;11.590;2023-02-26T05:46:32;94825.84;;;-4.39;100.00
60433;BME280;46286;48.098;11.590;2023-02-26T05:48:58;94832.97;;;-4.41;100.00
60433;BME280;46286;48.098;11.590;2023-02-26T05:51:23;94820.28;;;-4.49;100.00
60433;BME280;46286;48.098;11.590;2023-02-26T05:53:49;94825.84;;;-4.39;100.00
60433;BME280;46286;48.098;11.590;2023-02-26T05:56:15;94821.88;;;-4.41;100.00
60433;BME280;46286;48.098;11.590;2023-02-26T05:58:40;94828.56;;;-4.47;100.00
60433;BME280;46286;48.098;11.590;2023-02-26T06:01:06;94837.66;;;-4.51;100.00
60433;BME280;46286;48.098;11.590;2023-02-26T06:03:31;94841.59;;;-4.55;100.00
60433;BME280;46286;48.098;11.590;2023-02-26T06:05:57;94844.78;;;-4.46;100.00
60433;BME280;46286;48.098;11.590;2023-02-26T06:08:23;94858.38;;;-4.59;100.00
60433;BME280;46286;48.098;11.590;2023-02-26T06:10:49;94872.31;;;-4.68;100.00
60433;BME280;46286;48.098;11.590;2023-02-26T06:13:16;94877.69;;;-4.63;100.00
60433;BME280;46286;48.098;11.590;2023-02-26T06:15:42;94891.22;;;-4.48;100.00
60433;BME280;46286;48.098;11.590;2023-02-26T06:18:07;94896.56;;;-4.43;100.00
60433;BME280;46286;48.098;11.590;2023-02-26T06:20:33;94901.50;;;-4.48;100.00
60433;BME280;46286;48.098;11.590;2023-02-26T06:22:59;94906.00;;;-4.50;100.00
60433;BME280;46286;48.098;11.590;2023-02-26T06:25:25;94923.84;;;-4.42;100.00
60433;BME280;46286;48.098;11.590;2023-02-26T06:27:50;94914.53;;;-4.43;100.00
60433;BME280;46286;48.098;11.590;2023-02-26T06:30:16;94918.69;;;-4.42;100.00
60433;BME280;46286;48.098;11.590;2023-02-26T06:32:42;94918.75;;;-4.35;100.00
60433;BME280;46286;48.098;11.590;2023-02-26T06:35:09;94920.50;;;-4.36;100.00
60433;BME280;46286;48.098;11.590;2023-02-26T06:37:35;94926.31;;;-4.20;100.00
60433;BME280;46286;48.098;11.590;2023-02-26T06:40:01;94921.94;;;-4.26;100.00
60433;BME280;46286;48.098;11.590;2023-02-26T06:42:26;94919.91;;;-4.38;100.00
60433;BME280;46286;48.098;11.590;2023-02-26T06:44:52;94935.72;;;-4.34;100.00
60433;BME280;46286;48.098;11.590;2023-02-26T06:47:17;94927.47;;;-4.29;100.00
60433;BME280;46286;48.098;11.590;2023-02-26T06:49:43;94924.66;;;-4.35;100.00
60433;BME280;46286;48.098;11.590;2023-02-26T06:52:08;94937.28;;;-4.40;100.00
60433;BME280;46286;48.098;11.590;2023-02-26T06:54:34;94940.66;;;-4.32;100.00
60433;BME280;46286;48.098;11.590;2023-02-26T06:56:59;94937.75;;;-4.29;100.00
60433;BME280;46286;48.098;11.590;2023-02-26T06:59:27;94945.66;;;-4.24;100.00
60433;BME280;46286;48.098;11.590;2023-02-26T07:01:53;94954.41;;;-4.12;100.00
60433;BME280;46286;48.098;11.590;2023-02-26T07:04:18;94956.69;;;-4.30;100.00
60433;BME280;46286;48.098;11.590;2023-02-26T07:06:44;94965.81;;;-4.21;100.00
60433;BME280;46286;48.098;11.590;2023-02-26T07:09:10;94966.91;;;-4.44;100.00
60433;BME280;46286;48.098;11.590;2023-02-26T07:11:35;94968.19;;;-4.26;100.00
60433;BME280;46286;48.098;11.590;2023-02-26T07:14:01;94982.06;;;-4.14;100.00
60433;BME280;46286;48.098;11.590;2023-02-26T07:16:26;94983.66;;;-4.13;100.00
60433;BME280;46286;48.098;11.590;2023-02-26T07:18:52;94968.69;;;-4.03;100.00
60433;BME280;46286;48.098;11.590;2023-02-26T07:21:17;94975.97;;;-4.13;100.00
60433;BME280;46286;48.098;11.590;2023-02-26T07:23:43;94985.84;;;-4.10;100.00
60433;BME280;46286;48.098;11.590;2023-02-26T07:26:08;94985.66;;;-4.08;100.00
60433;BME280;46286;48.098;11.590;2023-02-26T07:28:34;94991.22;;;-4.05;100.00
60433;BME280;46286;48.098;11.590;2023-02-26T07:31:00;94989.09;;;-3.94;100.00
60433;BME280;46286;48.098;11.590;2023-02-26T07:33:25;94991.59;;;-4.08;100.00
60433;BME280;46286;48.098;11.590;2023-02-26T07:35:53;94990.06;;;-4.02;100.00
60433;BME280;46286;48.098;11.590;2023-02-26T07:38:19;94994.13;;;-3.73;100.00
60433;BME280;46286;48.098;11.590;2023-02-26T07:40:44;94993.16;;;-3.72;100.00
60433;BME280;46286;48.098;11.590;2023-02-26T07:43:10;94986.47;;;-4.01;100.00
60433;BME280;46286;48.098;11.590;2023-02-26T07:45:35;94989.31;;;-3.89;100.00
60433;BME280;46286;48.098;11.590;2023-02-26T07:48:01;94994.47;;;-3.89;100.00
60433;BME280;46286;48.098;11.590;2023-02-26T07:50:26;94991.44;;;-4.00;100.00
60433;BME280;46286;48.098;11.590;2023-02-26T07:52:52;94996.09;;;-3.75;100.00
60433;BME280;46286;48.098;11.590;2023-02-26T07:55:18;94998.56;;;-3.53;100.00
60433;BME280;46286;48.098;11.590;2023-02-26T07:57:44;95014.69;;;-3.73;100.00
60433;BME280;46286;48.098;11.590;2023-02-26T08:00:10;95013.91;;;-3.67;100.00
60433;BME280;46286;48.098;11.590;2023-02-26T08:02:36;95016.75;;;-3.48;100.00
60433;BME280;46286;48.098;11.590;2023-02-26T08:05:02;95023.78;;;-3.77;100.00
60433;BME280;46286;48.098;11.590;2023-02-26T08:07:27;95028.63;;;-3.47;100.00
60433;BME280;46286;48.098;11.590;2023-02-26T08:09:53;95012.00;;;-3.51;100.00
60433;BME280;46286;48.098;11.590;2023-02-26T08:12:18;95015.50;;;-3.66;100.00
60433;BME280;46286;48.098;11.590;2023-02-26T08:14:44;95028.59;;;-3.60;100.00
60433;BME280;46286;48.098;11.590;2023-02-26T08:17:10;95023.47;;;-3.60;100.00
60433;BME280;46286;48.098;11.590;2023-02-26T08:19:36;95035.69;;;-3.62;100.00
60433;BME280;46286;48.098;11.590;2023-02-26T08:22:02;95041.63;;;-3.69;100.00
60433;BME280;46286;48.098;11.590;2023-02-26T08:24:27;95047.06;;;-3.85;100.00
60433;BME280;46286;48.098;11.590;2023-02-26T08:26:53;95037.25;;;-3.75;100.00
60433;BME280;46286;48.098;11.590;2023-02-26T08:29:19;95046.72;;;-3.82;100.00
60433;BME280;46286;48.098;11.590;2023-02-26T08:31:45;95041.91;;;-3.85;100.00
60433;BME280;46286;48.098;11.590;2023-02-26T08:34:11;95052.59;;;-3.88;100.00
60433;BME280;46286;48.098;11.590;2023-02-26T08:36:36;95049.09;;;-3.74;100.00
60433;BME280;46286;48.098;11.590;2023-02-26T08:39:02;95048.78;;;-3.57;100.00
60433;BME280;46286;48.098;11.590;2023-02-26T08:41:28;95051.56;;;-3.52;100.00
60433;BME280;46286;48.098;11.590;2023-02-26T08:43:56;95059.06;;;-3.57;100.00
60433;BME280;46286;48.098;11.590;2023-02-26T08:46:22;95059.47;;;-3.60;100.00
60433;BME280;46286;48.098;11.590;2023-02-26T08:48:47;95059.28;;;-3.52;100.00
60433;BME280;46286;48.098;11.590;2023-02-26T08:51:13;95067.09;;;-3.25;100.00
60433;BME280;46286;48.098;11.590;2023-02-26T08:53:38;95070.25;;;-3.23;100.00
60433;BME280;46286;48.098;11.590;2023-02-26T08:56:05;95078.19;;;-3.25;100.00
60433;BME280;46286;48.098;11.590;2023-02-26T08:58:30;95073.22;;;-3.26;100.00
60433;BME280;46286;48.098;11.590;2023-02-26T09:00:56;95070.81;;;-3.41;100.00
60433;BME280;46286;48.098;11.590;2023-02-26T09:03:21;95086.31;;;-3.70;100.00
60433;BME280;46286;48.098;11.590;2023-02-26T09:05:47;95090.38;;;-3.47;100.00
60433;BME280;46286;48.098;11.590;2023-02-26T09:08:13;95085.63;;;-3.43;100.00
60433;BME280;46286;48.098;11.590;2023-02-26T09:10:41;95091.97;;;-3.46;100.00
60433;BME280;46286;48.098;11.590;2023-02-26T09:13:07;95094.75;;;-3.41;100.00
60433;BME280;46286;48.098;11.590;2023-02-26T09:15:32;95100.00;;;-3.14;100.00
60433;BME280;46286;48.098;11.590;2023-02-26T09:17:59;95103.13;;;-3.25;100.00
60433;BME280;46286;48.098;11.590;2023-02-26T09:20:25;95103.94;;;-3.18;100.00
60433;BME280;46286;48.098;11.590;2023-02-26T09:22:51;95110.25;;;-3.27;100.00
60433;BME280;46286;48.098;11.590;2023-02-26T09:25:17;95106.69;;;-3.26;100.00
60433;BME280;46286;48.098;11.590;2023-02-26T09:27:42;95120.13;;;-3.31;100.00
60433;BME280;46286;48.098;11.590;2023-02-26T09:30:09;95119.38;;;-3.18;100.00
60433;BME280;46286;48.098;11.590;2023-02-26T09:32:34;95129.25;;;-3.28;100.00
60433;BME280;46286;48.098;11.590;2023-02-26T09:35:00;95127.69;;;-3.23;100.00
60433;BME280;46286;48.098;11.590;2023-02-26T09:37:26;95130.84;;;-3.21;100.00
60433;BME280;46286;48.098;11.590;2023-02-26T09:39:52;95127.75;;;-3.03;100.00
60433;BME280;46286;48.098;11.590;2023-02-26T09:42:26;95122.66;;;-2.89;100.00
60433;BME280;46286;48.098;11.590;2023-02-26T09:44:54;95132.97;;;-2.76;100.00
60433;BME280;46286;48.098;11.590;2023-02-26T09:47:27;95142.47;;;-2.83;100.00
60433;BME280;46286;48.098;11.590;2023-02-26T09:50:02;95123.47;;;-2.69;100.00
60433;BME280;46286;48.098;11.590;2023-02-26T09:52:40;95131.47;;;-2.37;100.00
60433;BME280;46286;48.098;11.590;2023-02-26T09:55:16;95130.22;;;-2.68;100.00
60433;BME280;46286;48.098;11.590;2023-02-26T09:57:46;95133.00;;;-2.63;100.00
60433;BME280;46286;48.098;11.590;2023-02-26T10:00:22;95143.94;;;-2.54;100.00
60433;BME280;46286;48.098;11.590;2023-02-26T10:05:40;95147.25;;;-2.80;100.00
60433;BME280;46286;48.098;11.590;2023-02-26T10:08:17;95143.31;;;-2.63;100.00
60433;BME280;46286;48.098;11.590;2023-02-26T10:11:01;95141.34;;;-2.47;100.00
60433;BME280;46286;48.098;11.590;2023-02-26T10:13:51;95142.31;;;-2.62;100.00
60433;BME280;46286;48.098;11.590;2023-02-26T10:16:22;95142.50;;;-2.63;100.00
60433;BME280;46286;48.098;11.590;2023-02-26T10:19:12;95138.16;;;-2.63;100.00
60433;BME280;46286;48.098;11.590;2023-02-26T10:21:42;95144.84;;;-2.82;100.00
60433;BME280;46286;48.098;11.590;2023-02-26T10:24:15;95148.22;;;-2.81;100.00
60433;BME280;46286;48.098;11.590;2023-02-26T10:26:45;95138.13;;;-2.76;100.00
60433;BME280;46286;48.098;11.590;2023-02-26T10:29:40;95136.56;;;-2.64;100.00
60433;BME280;46286;48.098;11.590;2023-02-26T10:34:54;95134.25;;;-2.18;100.00
60433;BME280;46286;48.098;11.590;2023-02-26T10:37:47;95131.06;;;-1.94;100.00
60433;BME280;46286;48.098;11.590;2023-02-26T10:40:27;95135.00;;;-1.84;100.00
60433;BME280;46286;48.098;11.590;2023-02-26T10:42:58;95137.78;;;-1.79;100.00
60433;BME280;46286;48.098;11.590;2023-02-26T10:50:33;95135.41;;;-2.07;100.00
60433;BME280;46286;48.098;11.590;2023-02-26T10:52:59;95122.72;;;-2.09;100.00
60433;BME280;46286;48.098;11.590;2023-02-26T10:55:40;95111.22;;;-2.00;100.00
60433;BME280;46286;48.098;11.590;2023-02-26T10:58:14;95111.25;;;-2.27;100.00
60433;BME280;46286;48.098;11.590;2023-02-26T11:00:43;95110.03;;;-2.11;100.00
60433;BME280;46286;48.098;11.590;2023-02-26T11:03:17;95104.88;;;-2.04;100.00
60433;BME280;46286;48.098;11.590;2023-02-26T11:05:42;95101.28;;;-2.03;100.00
60433;BME280;46286;48.098;11.590;2023-02-26T11:08:14;95110.66;;;-2.15;100.00
60433;BME280;46286;48.098;11.590;2023-02-26T11:10:55;95097.75;;;-2.15;100.00
60433;BME280;46286;48.098;11.590;2023-02-26T11:13:26;95110.22;;;-2.05;100.00
60433;BME280;46286;48.098;11.590;2023-02-26T11:15:54;95108.44;;;-1.92;100.00
60433;BME280;46286;48.098;11.590;2023-02-26T11:18:25;95107.25;;;-2.09;100.00
60433;BME280;46286;48.098;11.590;2023-02-26T11:20:54;95109.63;;;-1.87;100.00
60433;BME280;46286;48.098;11.590;2023-02-26T11:23:21;95119.16;;;-2.21;100.00
60433;BME280;46286;48.098;11.590;2023-02-26T11:26:18;95133.44;;;-2.05;100.00
60433;BME280;46286;48.098;11.590;2023-02-26T11:28:49;95143.97;;;-1.94;100.00
60433;BME280;46286;48.098;11.590;2023-02-26T11:31:20;95141.34;;;-1.80;100.00
60433;BME280;46286;48.098;11.590;2023-02-26T11:33:49;95140.16;;;-1.84;100.00
60433;BME280;46286;48.098;11.590;2023-02-26T11:36:19;95146.88;;;-1.70;100.00
60433;BME280;46286;48.098;11.590;2023-02-26T11:38:52;95144.84;;;-1.41;100.00
60433;BME280;46286;48.098;11.590;2023-02-26T11:41:19;95150.00;;;-1.28;100.00
60433;BME280;46286;48.098;11.590;2023-02-26T11:44:07;95142.94;;;-1.79;100.00
60433;BME280;46286;48.098;11.590;2023-02-26T11:46:52;95158.81;;;-1.82;100.00
60433;BME280;46286;48.098;11.590;2023-02-26T11:49:22;95152.88;;;-1.89;100.00
60433;BME280;46286;48.098;11.590;2023-02-26T11:52:02;95156.84;;;-2.07;100.00
60433;BME280;46286;48.098;11.590;2023-02-26T11:54:28;95150.09;;;-1.95;100.00
60433;BME280;46286;48.098;11.590;2023-02-26T11:57:02;95152.69;;;-2.08;100.00
60433;BME280;46286;48.098;11.590;2023-02-26T11:59:31;95151.28;;;-2.17;100.00
60433;BME280;46286;48.098;11.590;2023-02-26T12:02:13;95156.47;;;-2.04;100.00
60433;BME280;46286;48.098;11.590;2023-02-26T12:04:45;95156.63;;;-1.72;100.00
60433;BME280;46286;48.098;11.590;2023-02-26T12:07:14;95156.41;;;-1.50;100.00
60433;BME280;46286;48.098;11.590;2023-02-26T12:09:41;95153.97;;;-1.32;100.00
60433;BME280;46286;48.098;11.590;2023-02-26T12:15:22;95144.69;;;-1.46;100.00
60433;BME280;46286;48.098;11.590;2023-02-26T12:18:33;95156.44;;;-1.64;100.00
60433;BME280;46286;48.098;11.590;2023-02-26T12:21:10;95164.75;;;-1.62;100.00
60433;BME280;46286;48.098;11.590;2023-02-26T12:26:40;95171.72;;;-0.97;100.00
60433;BME280;46286;48.098;11.590;2023-02-26T12:29:31;95166.25;;;-0.75;100.00
60433;BME280;46286;48.098;11.590;2023-02-26T12:37:47;95167.44;;;-0.39;100.00
60433;BME280;46286;48.098;11.590;2023-02-26T12:53:40;95144.78;;;0.57;100.00
60433;BME280;46286;48.098;11.590;2023-02-26T13:01:55;95115.94;;;0.91;100.00
60433;BME280;46286;48.098;11.590;2023-02-26T13:12:53;95113.69;;;4.06;100.00
60433;BME280;46286;48.098;11.590;2023-02-26T13:15:35;95124.34;;;2.60;100.00
60433;BME280;46286;48.098;11.590;2023-02-26T13:18:19;95118.09;;;3.88;100.00
60433;BME280;46286;48.098;11.590;2023-02-26T13:20:56;95136.63;;;4.82;100.00
60433;BME280;46286;48.098;11.590;2023-02-26T13:23:41;95133.84;;;3.07;100.00
60433;BME280;46286;48.098;11.590;2023-02-26T13:26:13;95142.09;;;2.28;100.00
60433;BME280;46286;48.098;11.590;2023-02-26T13:28:53;95150.91;;;0.81;100.00
60433;BME280;46286;48.098;11.590;2023-02-26T13:31:26;95152.53;;;1.43;100.00
60433;BME280;46286;48.098;11.590;2023-02-26T13:33:54;95152.16;;;1.09;100.00
60433;BME280;46286;48.098;11.590;2023-02-26T13:36:23;95151.41;;;1.39;100.00
60433;BME280;46286;48.098;11.590;2023-02-26T13:39:02;95144.81;;;1.25;100.00
60433;BME280;46286;48.098;11.590;2023-02-26T13:52:56;95165.59;;;-0.64;100.00
60433;BME280;46286;48.098;11.590;2023-02-26T13:55:47;95157.88;;;-1.09;100.00
60433;BME280;46286;48.098;11.590;2023-02-26T14:01:12;95159.53;;;-1.35;100.00
60433;BME280;46286;48.098;11.590;2023-02-26T14:04:21;95163.88;;;-1.29;100.00
60433;BME280;46286;48.098;11.590;2023-02-26T14:07:09;95155.03;;;-1.01;100.00
60433;BME280;46286;48.098;11.590;2023-02-26T14:10:02;95161.94;;;-0.88;100.00
60433;BME280;46286;48.098;11.590;2023-02-26T14:12:36;95163.03;;;-1.09;100.00
60433;BME280;46286;48.098;11.590;2023-02-26T14:17:46;95169.66;;;-0.81;100.00
60433;BME280;46286;48.098;11.590;2023-02-26T14:20:25;95169.66;;;-0.81;100.00
60433;BME280;46286;48.098;11.590;2023-02-26T14:23:18;95164.41;;;-0.61;100.00
60433;BME280;46286;48.098;11.590;2023-02-26T14:25:50;95166.44;;;-0.70;100.00
60433;BME280;46286;48.098;11.590;2023-02-26T14:33:31;95164.38;;;-0.55;100.00
60433;BME280;46286;48.098;11.590;2023-02-26T14:36:04;95169.94;;;-0.58;100.00